Météo

Actualisé à 10h30, Lille

icon

T : 9 °C / H : 76 %
Pression : 1009 Hpa
Vent d'ouest : 30 Km/h

Nuages fragmentés à 2300 pieds
Nuages fragmentés à 2800 pieds

2024/04/16 09:30 LFQQ 160930Z AUTO 28016KT 9999 BKN023 BKN028 OVC038 09/05 Q1009 TEMPO 33020G30KT 1500 TSRAGS SCT009 BKN013CB

Mots clés

Internet web infographiste flyers illustrateur graphiste webmaster PAO assistance informatique logo image invitation affiche création réalisation conception site vitrine voeux carte visite publication publicité impression plaquette charte graphique identité visuelle maintenance freelance


CSS Valide ! Valid HTML 5.0

Bienvenue

Ce site a été réalisé afin de vous faire découvrir mon métier, mes compétences, mon savoir-faire et bien entendu mes services. Vous s'y trouverez également une selection de logiciels et de liens divers et variés.



Infographiste - Web Designer

Je réalise votre logo - votre charte graphique.
Je peux également réaliser votre affiche - flyer - plaquette commerciale - catalogue publicitaire - espace pub - carte d'invitation - carte de visite - carte de fidélité - pochette cd-room ou encore votre présentation cd-room - site internet - maquette d'objet publicitaire.

Si mes services vous intéressent n'hésitez pas à me contacter.